createdAt,value
2024-02-20T00:02:29.631Z,100495.66
2024-02-20T00:05:33.407Z,100492.00
2024-02-20T00:08:36.648Z,100493.38
2024-02-20T00:11:47.384Z,100496.59
2024-02-20T00:14:53.952Z,100490.81
2024-02-20T00:17:57.568Z,100497.72
2024-02-20T00:21:01.044Z,100495.59
2024-02-20T00:24:05.849Z,100499.34
2024-02-20T00:27:12.185Z,100499.25
2024-02-20T00:30:20.585Z,100498.03
2024-02-20T00:33:24.885Z,100496.06
2024-02-20T00:36:30.668Z,100503.53
2024-02-20T00:39:37.176Z,100499.53
2024-02-20T00:42:47.305Z,100508.09
2024-02-20T00:45:51.878Z,100492.47
2024-02-20T00:48:56.910Z,100495.78
2024-02-20T00:52:04.871Z,100489.91
2024-02-20T00:55:09.484Z,100495.03
2024-02-20T00:58:12.852Z,100493.31
2024-02-20T01:01:18.206Z,100492.94
2024-02-20T01:04:23.252Z,100476.25
2024-02-20T01:07:31.380Z,100481.34
2024-02-20T01:10:35.605Z,100482.16
2024-02-20T01:13:47.491Z,100469.84
2024-02-20T01:16:57.407Z,100477.63
2024-02-20T01:20:02.870Z,100471.03
2024-02-20T01:23:09.983Z,100461.78
2024-02-20T01:26:16.315Z,100475.34
2024-02-20T01:29:25.229Z,100480.34
2024-02-20T01:32:44.390Z,100462.25
2024-02-20T01:35:52.120Z,100464.97
2024-02-20T01:39:00.946Z,100462.16
2024-02-20T01:42:04.428Z,100459.59
2024-02-20T01:45:10.030Z,100454.88
2024-02-20T01:48:14.144Z,100458.66
2024-02-20T01:51:16.986Z,100461.09
2024-02-20T01:54:28.055Z,100459.69
2024-02-20T01:57:34.389Z,100460.28
2024-02-20T02:00:38.156Z,100472.03
2024-02-20T02:03:49.067Z,100467.56
2024-02-20T02:06:53.944Z,100470.50
2024-02-20T02:09:59.341Z,100471.81
2024-02-20T02:13:02.650Z,100465.94
2024-02-20T02:16:09.904Z,100470.97
2024-02-20T02:19:19.182Z,100458.41
2024-02-20T02:22:23.029Z,100468.16
2024-02-20T02:28:51.036Z,100461.84
2024-02-20T02:31:54.852Z,100472.75
2024-02-20T02:35:11.468Z,100461.84
2024-02-20T02:38:14.514Z,100467.03
2024-02-20T02:41:22.309Z,100466.53
2024-02-20T02:44:28.246Z,100467.50
2024-02-20T02:47:33.044Z,100468.34
2024-02-20T02:50:35.726Z,100470.44
2024-02-20T02:53:41.615Z,100472.56
2024-02-20T02:56:48.558Z,100469.75
2024-02-20T02:59:51.644Z,100472.06
2024-02-20T03:02:56.178Z,100470.44
2024-02-20T03:05:59.979Z,100474.19
2024-02-20T03:09:17.188Z,100472.66
2024-02-20T03:12:19.759Z,100479.34
2024-02-20T03:15:22.983Z,100479.00
2024-02-20T03:18:26.009Z,100479.34
2024-02-20T03:21:32.026Z,100481.38
2024-02-20T03:24:38.434Z,100477.34
2024-02-20T03:27:44.706Z,100475.25
2024-02-20T03:30:47.957Z,100481.94
2024-02-20T03:33:54.313Z,100483.34
2024-02-20T03:40:20.357Z,100481.38
2024-02-20T03:43:26.255Z,100484.78
2024-02-20T03:46:31.477Z,100491.59
2024-02-20T03:49:35.979Z,100482.88
2024-02-20T03:52:39.998Z,100488.66
2024-02-20T03:55:42.790Z,100479.56
2024-02-20T03:58:47.666Z,100487.22
2024-02-20T04:01:56.037Z,100481.84
2024-02-20T04:04:59.950Z,100486.78
2024-02-20T04:08:06.457Z,100483.78
2024-02-20T04:11:12.778Z,100486.88
2024-02-20T04:14:16.710Z,100488.16
2024-02-20T04:17:23.087Z,100499.09
2024-02-20T04:20:27.116Z,100497.81
2024-02-20T04:23:38.074Z,100498.94
2024-02-20T04:26:44.047Z,100501.19
2024-02-20T04:29:49.561Z,100498.72
2024-02-20T04:32:55.058Z,100502.41
2024-02-20T04:35:58.007Z,100509.19
2024-02-20T04:39:04.651Z,100506.59
2024-02-20T04:42:09.160Z,100513.19
2024-02-20T04:45:13.733Z,100514.69
2024-02-20T04:48:18.846Z,100514.22
2024-02-20T04:51:25.124Z,100512.94
2024-02-20T04:54:31.473Z,100513.28
2024-02-20T04:57:39.475Z,100509.19
2024-02-20T05:00:46.086Z,100512.69
2024-02-20T05:03:51.300Z,100515.06
2024-02-20T05:06:53.720Z,100515.91
2024-02-20T05:10:00.000Z,100514.09
2024-02-20T05:13:04.707Z,100516.56
2024-02-20T05:16:10.228Z,100525.84
2024-02-20T05:19:15.380Z,100529.00
2024-02-20T05:22:22.771Z,100528.81
2024-02-20T05:25:27.895Z,100525.84
2024-02-20T05:28:33.331Z,100526.88
2024-02-20T05:31:36.919Z,100529.97
2024-02-20T05:34:45.014Z,100532.31
2024-02-20T05:37:50.272Z,100527.72
2024-02-20T05:44:10.626Z,100550.75
2024-02-20T05:47:25.023Z,100545.22
2024-02-20T05:50:30.539Z,100542.66
2024-02-20T05:53:39.626Z,100550.97
2024-02-20T05:56:44.966Z,100526.44
2024-02-20T05:59:50.877Z,100549.13
2024-02-20T06:02:56.146Z,100553.91
2024-02-20T06:06:05.232Z,100561.06
2024-02-20T06:09:09.328Z,100567.06
2024-02-20T06:12:14.769Z,100559.78
2024-02-20T06:15:26.110Z,100576.13
2024-02-20T06:18:31.154Z,100579.41
2024-02-20T06:21:44.266Z,100580.09
2024-02-20T06:24:50.262Z,100578.38
2024-02-20T06:27:57.641Z,100580.47
2024-02-20T06:31:07.196Z,100579.66
2024-02-20T06:34:12.620Z,100575.28
2024-02-20T06:37:17.897Z,100597.72
2024-02-20T06:40:24.271Z,100595.81
2024-02-20T06:43:35.900Z,100596.47
2024-02-20T06:46:44.586Z,100585.75
2024-02-20T06:49:49.702Z,100602.31
2024-02-20T06:52:55.420Z,100596.91
2024-02-20T06:55:59.888Z,100602.22
2024-02-20T06:59:06.568Z,100608.34
2024-02-20T07:02:10.154Z,100607.63
2024-02-20T07:05:14.687Z,100611.28
2024-02-20T07:08:23.702Z,100617.50
2024-02-20T07:11:30.726Z,100607.16
2024-02-20T07:14:34.124Z,100623.84
2024-02-20T07:17:38.570Z,100614.00
2024-02-20T07:20:46.327Z,100624.44
2024-02-20T07:30:26.061Z,100627.63
2024-02-20T07:33:36.355Z,100628.94
2024-02-20T07:36:47.618Z,100631.28
2024-02-20T07:39:51.321Z,100627.53
2024-02-20T07:42:56.029Z,100628.94
2024-02-20T07:46:00.216Z,100639.19
2024-02-20T07:49:07.413Z,100630.84
2024-02-20T07:52:14.950Z,100642.78
2024-02-20T07:55:19.722Z,100641.53
2024-02-20T07:58:30.835Z,100640.09
2024-02-20T08:01:39.854Z,100644.25
2024-02-20T08:04:45.618Z,100634.47
2024-02-20T08:07:49.244Z,100642.59
2024-02-20T08:10:52.795Z,100632.47
2024-02-20T08:13:58.823Z,100646.56
2024-02-20T08:17:04.397Z,100638.59
2024-02-20T08:20:10.235Z,100642.56
2024-02-20T08:23:12.591Z,100636.22
2024-02-20T08:26:19.686Z,100642.69
2024-02-20T08:29:29.820Z,100634.13
2024-02-20T08:32:33.279Z,100647.25
2024-02-20T08:35:45.082Z,100640.81
2024-02-20T08:38:50.812Z,100643.25
2024-02-20T08:41:53.238Z,100634.53
2024-02-20T08:45:04.878Z,100633.69
2024-02-20T08:48:09.982Z,100641.34
2024-02-20T08:51:16.354Z,100642.31
2024-02-20T08:54:24.823Z,100650.53
2024-02-20T08:57:28.181Z,100633.81
2024-02-20T09:00:37.328Z,100630.50
2024-02-20T09:03:49.162Z,100640.72
2024-02-20T09:06:54.604Z,100642.22
2024-02-20T09:09:59.110Z,100639.94
2024-02-20T09:13:03.184Z,100650.75
2024-02-20T09:16:07.127Z,100660.38
2024-02-20T09:19:12.338Z,100659.69
2024-02-20T09:22:16.369Z,100654.44
2024-02-20T09:25:20.434Z,100657.72
2024-02-20T09:28:27.622Z,100661.19
2024-02-20T09:31:32.410Z,100671.69
2024-02-20T09:34:37.211Z,100669.84
2024-02-20T09:37:47.897Z,100680.97
2024-02-20T09:40:52.300Z,100682.78
2024-02-20T09:43:58.740Z,100681.38
2024-02-20T09:47:10.155Z,100655.59
2024-02-20T09:50:23.110Z,100682.56
2024-02-20T09:53:26.678Z,100685.28
2024-02-20T09:56:42.886Z,100689.44
2024-02-20T09:59:48.607Z,100697.28
2024-02-20T10:02:53.755Z,100690.50
2024-02-20T10:06:04.030Z,100692.19
2024-02-20T10:09:13.010Z,100679.66
2024-02-20T10:12:23.881Z,100686.91
2024-02-20T10:15:30.905Z,100682.13
2024-02-20T10:18:39.834Z,100688.81
2024-02-20T10:21:52.814Z,100689.78
2024-02-20T10:25:16.043Z,100688.63
2024-02-20T10:28:23.328Z,100696.69
2024-02-20T10:31:29.513Z,100694.56
2024-02-20T10:34:46.709Z,100689.84
2024-02-20T10:38:29.087Z,100691.19
2024-02-20T10:41:34.470Z,100685.84
2024-02-20T10:44:47.421Z,100691.69
2024-02-20T10:47:52.436Z,100689.69
2024-02-20T10:50:55.428Z,100690.69
2024-02-20T10:54:03.172Z,100694.63
2024-02-20T10:57:08.882Z,100695.66
2024-02-20T11:00:14.879Z,100688.50
2024-02-20T11:03:19.924Z,100685.97
2024-02-20T11:06:22.621Z,100688.53
2024-02-20T11:09:27.283Z,100678.34
2024-02-20T11:12:35.318Z,100684.44
2024-02-20T11:15:41.037Z,100675.88
2024-02-20T11:19:02.149Z,100684.59
2024-02-20T11:22:14.694Z,100668.88
2024-02-20T11:25:31.712Z,100669.09
2024-02-20T11:28:45.975Z,100676.66
2024-02-20T11:31:54.523Z,100675.41
2024-02-20T11:34:58.682Z,100680.34
2024-02-20T11:38:11.071Z,100680.53
2024-02-20T11:41:15.566Z,100667.50
2024-02-20T11:44:22.051Z,100675.44
2024-02-20T11:47:24.563Z,100676.19
2024-02-20T11:50:36.370Z,100685.91
2024-02-20T11:53:45.335Z,100687.03
2024-02-20T11:56:47.793Z,100677.25
2024-02-20T11:59:50.156Z,100684.78
2024-02-20T12:06:18.478Z,100686.44
2024-02-20T12:09:22.860Z,100677.88
2024-02-20T12:12:42.492Z,100684.94
2024-02-20T12:16:09.310Z,100685.66
2024-02-20T12:19:29.800Z,100680.53
2024-02-20T12:25:50.925Z,100673.09
2024-02-20T12:28:58.665Z,100675.34
2024-02-20T12:32:07.354Z,100670.59
2024-02-20T12:35:15.396Z,100683.09
2024-02-20T12:38:20.066Z,100683.44
2024-02-20T12:41:22.380Z,100686.41
2024-02-20T12:44:34.033Z,100685.00
2024-02-20T12:47:39.429Z,100697.34
2024-02-20T12:50:52.644Z,100620.44
2024-02-20T12:54:05.243Z,100697.59
2024-02-20T12:57:11.950Z,100692.00
2024-02-20T13:00:30.207Z,100695.31
2024-02-20T13:03:40.446Z,100687.16
2024-02-20T13:06:44.428Z,100686.84
2024-02-20T13:09:55.080Z,100686.41
2024-02-20T13:13:04.766Z,100688.25
2024-02-20T13:16:08.152Z,100688.97
2024-02-20T13:19:19.955Z,100692.97
2024-02-20T13:22:25.691Z,100686.59
2024-02-20T13:25:33.073Z,100701.81
2024-02-20T13:31:58.178Z,100688.13
2024-02-20T13:35:13.433Z,100698.75
2024-02-20T13:38:18.505Z,100708.53
2024-02-20T13:41:28.571Z,100706.31
2024-02-20T13:44:41.602Z,100695.88
2024-02-20T13:47:46.290Z,100710.78
2024-02-20T13:51:00.084Z,100721.69
2024-02-20T13:54:06.428Z,100724.53
2024-02-20T13:57:13.713Z,100722.72
2024-02-20T14:00:17.514Z,100723.69
2024-02-20T14:03:28.377Z,100722.97
2024-02-20T14:06:36.925Z,100738.47
2024-02-20T14:09:39.703Z,100740.97
2024-02-20T14:12:49.344Z,100735.06
2024-02-20T14:15:54.936Z,100746.31
2024-02-20T14:19:00.719Z,100751.84
2024-02-20T14:22:06.481Z,100749.03
2024-02-20T14:25:09.672Z,100738.69
2024-02-20T14:28:12.367Z,100744.47
2024-02-20T14:31:21.568Z,100745.38
2024-02-20T14:34:28.282Z,100735.50
2024-02-20T14:37:34.949Z,100748.47
2024-02-20T14:40:38.679Z,100742.59
2024-02-20T14:43:48.429Z,100739.75
2024-02-20T14:46:58.943Z,100743.72
2024-02-20T14:50:08.382Z,100746.41
2024-02-20T14:53:13.465Z,100745.09
2024-02-20T14:56:19.912Z,100757.09
2024-02-20T14:59:29.683Z,100758.56
2024-02-20T15:02:33.380Z,100761.50
2024-02-20T15:05:37.237Z,100766.91
2024-02-20T15:08:43.475Z,100769.28
2024-02-20T15:11:52.301Z,100766.34
2024-02-20T15:14:59.686Z,100767.78
2024-02-20T15:18:04.439Z,100776.28
2024-02-20T15:21:35.297Z,100767.00
2024-02-20T15:25:01.990Z,100783.38
2024-02-20T15:28:10.317Z,100793.97
2024-02-20T15:31:17.665Z,100785.84
2024-02-20T15:34:29.317Z,100792.69
2024-02-20T15:37:40.081Z,100795.63
2024-02-20T15:40:52.747Z,100796.28
2024-02-20T15:43:55.431Z,100796.44
2024-02-20T15:47:11.653Z,100790.66
2024-02-20T15:50:20.860Z,100790.88
2024-02-20T15:53:25.640Z,100794.22
2024-02-20T15:56:30.813Z,100808.41
2024-02-20T16:03:20.257Z,100817.28
2024-02-20T16:06:28.159Z,100814.91
2024-02-20T16:09:35.765Z,100814.09
2024-02-20T16:16:12.122Z,100832.66
2024-02-20T16:19:20.949Z,100833.94
2024-02-20T16:22:27.732Z,100832.75
2024-02-20T16:25:40.691Z,100835.31
2024-02-20T16:28:48.373Z,100847.66
2024-02-20T16:31:55.372Z,100848.78
2024-02-20T16:34:59.266Z,100852.50
2024-02-20T16:38:04.801Z,100852.50
2024-02-20T16:41:09.917Z,100849.91
2024-02-20T16:44:16.127Z,100852.97
2024-02-20T16:50:45.333Z,100873.94
2024-02-20T16:53:57.147Z,100879.34
2024-02-20T16:57:00.043Z,100866.56
2024-02-20T17:00:05.919Z,100886.47
2024-02-20T17:03:10.315Z,100895.44
2024-02-20T17:06:16.246Z,100901.38
2024-02-20T17:09:27.826Z,100897.38
2024-02-20T17:12:39.748Z,100895.44
2024-02-20T17:15:49.116Z,100903.22
2024-02-20T17:18:53.946Z,100906.00
2024-02-20T17:25:19.252Z,100908.47
2024-02-20T17:31:49.340Z,100917.25
2024-02-20T17:34:59.208Z,100918.84
2024-02-20T17:38:05.568Z,100918.47
2024-02-20T17:41:56.272Z,100918.06
2024-02-20T17:45:00.377Z,100911.91
2024-02-20T17:48:03.813Z,100912.03
2024-02-20T17:51:11.755Z,100910.41
2024-02-20T17:54:15.613Z,100908.63
2024-02-20T17:57:19.706Z,100915.00
2024-02-20T18:03:55.340Z,100916.19
2024-02-20T18:06:59.751Z,100918.06
2024-02-20T18:10:11.356Z,100909.22
2024-02-20T18:13:24.696Z,100910.66
2024-02-20T18:16:27.121Z,100919.47
2024-02-20T18:19:48.030Z,100923.53
2024-02-20T18:22:54.981Z,100925.81
2024-02-20T18:25:59.611Z,100918.47
2024-02-20T18:29:07.972Z,100926.00
2024-02-20T18:32:16.452Z,100928.53
2024-02-20T18:35:23.286Z,100932.06
2024-02-20T18:38:35.334Z,100932.03
2024-02-20T18:41:45.846Z,100939.22
2024-02-20T18:44:53.468Z,100938.16
2024-02-20T18:48:06.607Z,100933.22
2024-02-20T18:51:14.427Z,100932.56
2024-02-20T18:54:16.835Z,100928.56
2024-02-20T18:57:19.401Z,100936.72
2024-02-20T19:00:31.831Z,100933.16
2024-02-20T19:03:37.527Z,100938.97
2024-02-20T19:06:47.642Z,100936.56
2024-02-20T19:09:55.088Z,100933.03
2024-02-20T19:12:58.628Z,100935.03
2024-02-20T19:16:04.169Z,100931.28
2024-02-20T19:19:11.247Z,100929.09
2024-02-20T19:22:18.079Z,100929.63
2024-02-20T19:25:21.776Z,100930.47
2024-02-20T19:28:26.933Z,100932.41
2024-02-20T19:31:37.246Z,100934.28
2024-02-20T19:34:47.211Z,100939.41
2024-02-20T19:37:55.474Z,100941.34
2024-02-20T19:41:09.306Z,100938.63
2024-02-20T19:44:13.450Z,100931.59
2024-02-20T19:47:21.183Z,100941.75
2024-02-20T19:50:23.796Z,100937.19
2024-02-20T19:53:28.400Z,100938.44
2024-02-20T19:56:30.775Z,100935.59
2024-02-20T19:59:38.567Z,100935.53
2024-02-20T20:02:50.211Z,100937.63
2024-02-20T20:06:05.122Z,100932.28
2024-02-20T20:09:16.369Z,100938.28
2024-02-20T20:12:22.564Z,100930.88
2024-02-20T20:15:30.091Z,100938.28
2024-02-20T20:18:35.364Z,100934.16
2024-02-20T20:21:38.940Z,100929.28
2024-02-20T20:24:41.491Z,100934.50
2024-02-20T20:27:58.398Z,100928.31
2024-02-20T20:31:00.821Z,100927.94
2024-02-20T20:34:05.470Z,100928.75
2024-02-20T20:37:13.909Z,100923.97
2024-02-20T20:40:22.793Z,100933.25
2024-02-20T20:43:28.244Z,100922.84
2024-02-20T20:53:19.650Z,100922.25
2024-02-20T20:56:34.393Z,100933.03
2024-02-20T20:59:40.557Z,100936.28
2024-02-20T21:02:47.159Z,100934.94
2024-02-20T21:05:55.022Z,100934.78
2024-02-20T21:09:11.536Z,100927.13
2024-02-20T21:12:15.991Z,100923.31
2024-02-20T21:15:18.395Z,100927.75
2024-02-20T21:18:20.832Z,100935.66
2024-02-20T21:21:28.814Z,100948.75
2024-02-20T21:24:33.375Z,100944.66
2024-02-20T21:27:37.381Z,100944.56
2024-02-20T21:30:45.314Z,100936.66
2024-02-20T21:33:57.160Z,100943.66
2024-02-20T21:37:02.026Z,100940.75
2024-02-20T21:40:07.727Z,100946.16
2024-02-20T21:43:11.210Z,100940.19
2024-02-20T21:46:19.272Z,100944.91
2024-02-20T21:49:25.401Z,100941.97
2024-02-20T21:52:27.819Z,100933.38
2024-02-20T21:55:34.444Z,100931.22
2024-02-20T21:58:37.939Z,100942.97
2024-02-20T22:01:42.114Z,100931.19
2024-02-20T22:04:52.970Z,100934.31
2024-02-20T22:11:16.502Z,100938.97
2024-02-20T22:14:22.731Z,100934.88
2024-02-20T22:17:29.721Z,100935.47
2024-02-20T22:20:41.006Z,100933.66
2024-02-20T22:23:47.598Z,100944.91
2024-02-20T22:26:56.963Z,100936.38
2024-02-20T22:30:02.009Z,100940.72
2024-02-20T22:33:07.383Z,100944.56
2024-02-20T22:36:16.917Z,100944.56
2024-02-20T22:39:30.168Z,100930.47
2024-02-20T22:42:34.060Z,100940.44
2024-02-20T22:45:39.735Z,100941.94
2024-02-20T22:48:48.276Z,100938.34
2024-02-20T22:51:55.100Z,100938.16
2024-02-20T22:54:58.774Z,100939.50
2024-02-20T22:58:04.472Z,100942.63
2024-02-20T23:01:11.155Z,100939.78
2024-02-20T23:04:16.817Z,100933.16
2024-02-20T23:07:25.825Z,100934.78
2024-02-20T23:10:30.846Z,100932.94
2024-02-20T23:13:37.566Z,100932.72
2024-02-20T23:16:41.565Z,100938.28
2024-02-20T23:19:47.104Z,100937.84
2024-02-20T23:22:50.737Z,100921.88
2024-02-20T23:25:56.786Z,100927.88
2024-02-20T23:29:02.205Z,100920.81
2024-02-20T23:32:07.303Z,100924.47
2024-02-20T23:35:10.731Z,100923.41
2024-02-20T23:38:15.951Z,100911.19
2024-02-20T23:41:23.874Z,100922.41
2024-02-20T23:47:58.688Z,100918.44
2024-02-20T23:51:06.734Z,100921.97
2024-02-20T23:54:11.319Z,100921.94
2024-02-20T23:57:14.877Z,100920.50
